createdAt,value
2023-01-11T00:00:02.601Z,99226.22
2023-01-11T00:02:29.413Z,99240.31
2023-01-11T00:04:56.191Z,99240.31
2023-01-11T00:07:22.883Z,99244.66
2023-01-11T00:09:49.605Z,99245.78
2023-01-11T00:12:16.580Z,99238.72
2023-01-11T00:14:43.336Z,99260.69
2023-01-11T00:17:10.097Z,99271.00
2023-01-11T00:19:36.792Z,99254.50
2023-01-11T00:22:03.524Z,99247.41
2023-01-11T00:24:30.259Z,99248.09
2023-01-11T00:26:56.957Z,99270.78
2023-01-11T00:29:23.603Z,99260.50
2023-01-11T00:31:50.265Z,99250.19
2023-01-11T00:34:16.867Z,99260.31
2023-01-11T00:36:43.503Z,99254.00
2023-01-11T00:39:10.129Z,99263.41
2023-01-11T00:41:55.163Z,99256.69
2023-01-11T00:44:40.610Z,99268.38
2023-01-11T00:47:32.614Z,99256.91
2023-01-11T00:49:59.582Z,99260.81
2023-01-11T00:52:26.211Z,99248.59
2023-01-11T00:54:52.978Z,99271.69
2023-01-11T00:57:19.857Z,99269.31
2023-01-11T00:59:46.692Z,99271.59
2023-01-11T01:02:13.650Z,99279.38
2023-01-11T01:04:40.515Z,99275.50
2023-01-11T01:07:07.898Z,99291.53
2023-01-11T01:09:34.631Z,99282.47
2023-01-11T01:12:02.396Z,99287.97
2023-01-11T01:14:30.018Z,99262.44
2023-01-11T01:17:08.458Z,99267.50
2023-01-11T01:19:37.826Z,99275.28
2023-01-11T01:22:05.029Z,99263.03
2023-01-11T01:24:32.596Z,99270.50
2023-01-11T01:26:59.335Z,99279.84
2023-01-11T01:29:26.221Z,99288.47
2023-01-11T01:31:52.959Z,99281.81
2023-01-11T01:34:19.701Z,99285.34
2023-01-11T01:36:46.428Z,99272.44
2023-01-11T01:39:13.474Z,99271.63
2023-01-11T01:41:40.236Z,99280.22
2023-01-11T01:44:44.311Z,99286.03
2023-01-11T01:47:12.264Z,99282.84
2023-01-11T01:49:40.024Z,99273.38
2023-01-11T01:52:07.762Z,99276.44
2023-01-11T01:54:39.458Z,99291.34
2023-01-11T01:57:13.386Z,99293.63
2023-01-11T01:59:41.616Z,99291.22
2023-01-11T02:02:08.383Z,99305.31
2023-01-11T02:04:41.666Z,99309.19
2023-01-11T02:07:10.723Z,99300.97
2023-01-11T02:09:40.291Z,99292.28
2023-01-11T02:12:07.962Z,99300.50
2023-01-11T02:14:37.496Z,99296.97
2023-01-11T02:17:04.572Z,99297.31
2023-01-11T02:19:49.263Z,99307.81
2023-01-11T02:22:27.986Z,99294.81
2023-01-11T02:25:00.420Z,99298.69
2023-01-11T02:27:30.144Z,99314.38
2023-01-11T02:30:09.116Z,99306.13
2023-01-11T02:33:14.786Z,99311.16
2023-01-11T02:36:01.188Z,99301.00
2023-01-11T02:38:42.311Z,99308.75
2023-01-11T02:42:07.854Z,99313.34
2023-01-11T02:45:03.040Z,99321.59
2023-01-11T02:47:51.323Z,99316.09
2023-01-11T02:50:26.803Z,99319.66
2023-01-11T02:53:07.099Z,99324.31
2023-01-11T02:55:42.162Z,99322.72
2023-01-11T02:58:12.384Z,99311.75
2023-01-11T03:01:42.944Z,99319.72
2023-01-11T03:04:26.130Z,99327.63
2023-01-11T03:07:12.373Z,99333.47
2023-01-11T03:10:02.339Z,99337.00
2023-01-11T03:12:52.097Z,99341.81
2023-01-11T03:15:18.799Z,99335.50
2023-01-11T03:17:59.020Z,99332.31
2023-01-11T03:20:31.038Z,99350.41
2023-01-11T03:23:24.446Z,99332.31
2023-01-11T03:26:18.339Z,99341.25
2023-01-11T03:29:06.010Z,99335.31
2023-01-11T03:31:39.868Z,99344.66
2023-01-11T03:34:29.829Z,99351.31
2023-01-11T03:37:20.729Z,99346.16
2023-01-11T03:39:56.934Z,99338.63
2023-01-11T03:42:27.175Z,99344.47
2023-01-11T03:44:55.868Z,99334.97
2023-01-11T03:47:25.917Z,99338.06
2023-01-11T03:49:57.391Z,99348.69
2023-01-11T03:52:30.745Z,99351.09
2023-01-11T03:54:59.784Z,99342.53
2023-01-11T03:57:32.619Z,99346.75
2023-01-11T04:00:00.052Z,99347.88
2023-01-11T04:02:33.521Z,99341.16
2023-01-11T04:05:00.354Z,99326.19
2023-01-11T04:07:27.004Z,99336.34
2023-01-11T04:09:53.675Z,99328.91
2023-01-11T04:12:20.397Z,99319.56
2023-01-11T04:14:47.015Z,99318.75
2023-01-11T04:17:13.908Z,99313.25
2023-01-11T04:19:40.519Z,99315.19
2023-01-11T04:22:07.182Z,99319.06
2023-01-11T04:24:33.867Z,99313.94
2023-01-11T04:27:00.512Z,99321.38
2023-01-11T04:29:27.213Z,99333.97
2023-01-11T04:31:53.901Z,99322.97
2023-01-11T04:34:20.565Z,99334.41
2023-01-11T04:36:47.170Z,99319.06
2023-01-11T04:39:13.853Z,99328.91
2023-01-11T04:41:59.039Z,99337.16
2023-01-11T04:44:25.944Z,99332.91
2023-01-11T04:46:52.705Z,99329.38
2023-01-11T04:49:19.407Z,99334.84
2023-01-11T04:51:46.117Z,99333.28
2023-01-11T04:54:12.761Z,99333.28
2023-01-11T04:56:39.460Z,99344.25
2023-01-11T04:59:06.073Z,99351.69
2023-01-11T05:01:32.784Z,99338.75
2023-01-11T05:03:59.561Z,99355.22
2023-01-11T05:06:26.218Z,99349.75
2023-01-11T05:08:52.906Z,99345.81
2023-01-11T05:11:19.734Z,99347.00
2023-01-11T05:13:46.368Z,99337.16
2023-01-11T05:16:17.786Z,99341.84
2023-01-11T05:18:47.607Z,99341.03
2023-01-11T05:21:16.646Z,99332.34
2023-01-11T05:23:43.884Z,99338.63
2023-01-11T05:26:13.835Z,99335.53
2023-01-11T05:28:40.681Z,99335.53
2023-01-11T05:31:07.405Z,99326.19
2023-01-11T05:33:34.057Z,99330.16
2023-01-11T05:36:03.243Z,99328.22
2023-01-11T05:38:30.367Z,99337.59
2023-01-11T05:41:02.470Z,99319.66
2023-01-11T05:43:30.410Z,99335.09
2023-01-11T05:45:58.577Z,99328.56
2023-01-11T05:48:25.901Z,99330.72
2023-01-11T05:50:53.942Z,99315.16
2023-01-11T05:53:22.436Z,99327.03
2023-01-11T05:55:58.869Z,99322.03
2023-01-11T05:58:26.935Z,99323.59
2023-01-11T06:00:55.611Z,99323.59
2023-01-11T06:03:24.283Z,99316.97
2023-01-11T06:05:51.696Z,99313.09
2023-01-11T06:08:18.970Z,99315.50
2023-01-11T06:10:54.711Z,99287.34
2023-01-11T06:13:28.269Z,99312.50
2023-01-11T06:16:00.810Z,99320.84
2023-01-11T06:18:35.224Z,99322.44
2023-01-11T06:21:02.807Z,99321.28
2023-01-11T06:23:31.768Z,99351.94
2023-01-11T06:26:05.268Z,99344.16
2023-01-11T06:28:32.237Z,99355.94
2023-01-11T06:30:59.758Z,99333.16
2023-01-11T06:33:28.507Z,99348.06
2023-01-11T06:35:56.217Z,99329.09
2023-01-11T06:38:24.304Z,99334.81
2023-01-11T06:41:01.711Z,99325.22
2023-01-11T06:43:29.672Z,99339.63
2023-01-11T06:45:57.044Z,99346.97
2023-01-11T06:48:24.166Z,99343.75
2023-01-11T06:50:53.413Z,99354.72
2023-01-11T06:53:20.763Z,99348.91
2023-01-11T06:55:52.049Z,99349.72
2023-01-11T06:58:19.375Z,99341.47
2023-01-11T07:00:46.407Z,99345.38
2023-01-11T07:03:14.305Z,99350.03
2023-01-11T07:05:43.942Z,99348.78
2023-01-11T07:08:11.166Z,99351.09
2023-01-11T07:10:37.951Z,99354.63
2023-01-11T07:13:04.699Z,99333.47
2023-01-11T07:15:31.617Z,99336.31
2023-01-11T07:17:59.927Z,99338.75
2023-01-11T07:20:27.808Z,99327.75
2023-01-11T07:22:59.423Z,99322.28
2023-01-11T07:25:27.848Z,99327.75
2023-01-11T07:28:03.877Z,99328.66
2023-01-11T07:30:34.457Z,99346.72
2023-01-11T07:33:06.402Z,99323.59
2023-01-11T07:35:33.298Z,99328.41
2023-01-11T07:38:01.051Z,99333.22
2023-01-11T07:40:27.817Z,99334.09
2023-01-11T07:43:13.646Z,99340.50
2023-01-11T07:45:47.037Z,99329.28
2023-01-11T07:48:15.449Z,99324.59
2023-01-11T07:50:44.783Z,99324.50
2023-01-11T07:53:12.965Z,99336.97
2023-01-11T07:55:40.636Z,99323.34
2023-01-11T07:58:08.794Z,99318.75
2023-01-11T08:00:35.471Z,99308.13
2023-01-11T08:03:02.989Z,99313.63
2023-01-11T08:05:29.894Z,99321.41
2023-01-11T08:07:56.673Z,99321.28
2023-01-11T08:10:23.940Z,99324.41
2023-01-11T08:13:09.271Z,99336.16
2023-01-11T08:15:42.557Z,99340.75
2023-01-11T08:18:11.422Z,99341.56
2023-01-11T08:20:38.791Z,99354.13
2023-01-11T08:23:07.345Z,99338.91
2023-01-11T08:25:34.347Z,99338.22
2023-01-11T08:28:05.257Z,99326.78
2023-01-11T08:30:32.232Z,99319.69
2023-01-11T08:33:00.908Z,99326.34
2023-01-11T08:35:27.728Z,99341.66
2023-01-11T08:37:54.639Z,99330.78
2023-01-11T08:40:23.881Z,99326.09
2023-01-11T08:42:56.317Z,99328.47
2023-01-11T08:45:23.049Z,99327.69
2023-01-11T08:47:51.463Z,99340.63
2023-01-11T08:50:19.283Z,99348.06
2023-01-11T08:52:46.864Z,99326.78
2023-01-11T08:55:13.788Z,99334.56
2023-01-11T08:57:40.472Z,99363.16
2023-01-11T09:00:08.559Z,99346.69
2023-01-11T09:02:35.678Z,99343.16
2023-01-11T09:05:02.537Z,99338.00
2023-01-11T09:07:29.236Z,99346.25
2023-01-11T09:09:57.700Z,99334.00
2023-01-11T09:12:24.641Z,99317.53
2023-01-11T09:14:51.348Z,99300.63
2023-01-11T09:17:18.013Z,99317.78
2023-01-11T09:19:45.865Z,99313.44
2023-01-11T09:22:12.533Z,99327.97
2023-01-11T09:24:39.229Z,99307.94
2023-01-11T09:27:06.068Z,99297.31
2023-01-11T09:29:37.029Z,99301.31
2023-01-11T09:32:04.283Z,99297.53
2023-01-11T09:34:31.038Z,99293.72
2023-01-11T09:37:02.617Z,99293.84
2023-01-11T09:39:29.582Z,99294.72
2023-01-11T09:42:31.507Z,99301.94
2023-01-11T09:45:32.639Z,99300.78
2023-01-11T09:48:21.405Z,99293.34
2023-01-11T09:50:48.888Z,99283.53
2023-01-11T09:53:15.512Z,99294.94
2023-01-11T09:55:47.195Z,99295.41
2023-01-11T09:58:34.164Z,99296.66
2023-01-11T10:01:17.599Z,99283.06
2023-01-11T10:04:06.352Z,99296.41
2023-01-11T10:06:42.468Z,99300.78
2023-01-11T10:18:32.234Z,99333.94
2023-01-11T10:19:32.073Z,99312.41
2023-01-11T10:22:23.425Z,99311.63
2023-01-11T10:25:07.566Z,99299.03
2023-01-11T10:27:39.463Z,99300.97
2023-01-11T10:30:37.484Z,99297.09
2023-01-11T10:33:35.424Z,99289.66
2023-01-11T10:36:21.360Z,99293.53
2023-01-11T10:39:15.879Z,99307.28
2023-01-11T10:41:57.254Z,99324.09
2023-01-11T10:44:40.380Z,99308.41
2023-01-11T10:47:16.440Z,99306.81
2023-01-11T10:49:56.675Z,99316.19
2023-01-11T10:52:35.224Z,99317.34
2023-01-11T10:55:13.023Z,99306.28
2023-01-11T10:58:00.405Z,99290.38
2023-01-11T11:00:53.514Z,99284.78
2023-01-11T11:03:45.300Z,99291.28
2023-01-11T11:06:35.239Z,99278.25
2023-01-11T11:09:23.092Z,99278.16
2023-01-11T11:12:25.966Z,99276.91
2023-01-11T11:15:18.899Z,99289.84
2023-01-11T11:17:50.848Z,99292.59
2023-01-11T11:20:24.939Z,99283.91
2023-01-11T11:22:54.318Z,99285.03
2023-01-11T11:25:32.098Z,99293.16
2023-01-11T11:28:30.802Z,99289.66
2023-01-11T11:31:02.536Z,99291.13
2023-01-11T11:33:39.297Z,99281.63
2023-01-11T11:36:08.920Z,99283.34
2023-01-11T11:38:36.868Z,99263.88
2023-01-11T11:41:17.367Z,99271.19
2023-01-11T11:43:46.718Z,99270.50
2023-01-11T11:46:20.035Z,99259.50
2023-01-11T11:49:18.400Z,99246.91
2023-01-11T11:51:47.923Z,99253.53
2023-01-11T11:54:25.267Z,99245.78
2023-01-11T11:56:52.747Z,99227.09
2023-01-11T11:59:22.254Z,99218.16
2023-01-11T12:02:05.837Z,99237.94
2023-01-11T12:04:46.364Z,99236.91
2023-01-11T12:07:16.669Z,99224.97
2023-01-11T12:10:08.473Z,99222.50
2023-01-11T12:12:57.906Z,99224.72
2023-01-11T12:15:27.313Z,99223.28
2023-01-11T12:17:55.118Z,99228.97
2023-01-11T12:20:31.036Z,99230.56
2023-01-11T12:23:22.138Z,99223.56
2023-01-11T12:26:12.908Z,99239.28
2023-01-11T12:29:18.785Z,99240.78
2023-01-11T12:31:57.705Z,99261.16
2023-01-11T12:34:33.377Z,99231.19
2023-01-11T12:36:59.976Z,99237.50
2023-01-11T12:39:29.503Z,99242.28
2023-01-11T12:42:09.233Z,99224.19
2023-01-11T12:44:44.368Z,99219.41
2023-01-11T12:47:31.840Z,99248.28
2023-01-11T12:50:11.610Z,99263.88
2023-01-11T12:52:56.597Z,99267.34
2023-01-11T12:55:52.744Z,99266.09
2023-01-11T12:58:44.488Z,99284.97
2023-01-11T13:01:37.806Z,99265.28
2023-01-11T13:04:20.448Z,99270.78
2023-01-11T13:06:47.260Z,99266.00
2023-01-11T13:09:35.233Z,99280.53
2023-01-11T13:12:21.681Z,99268.03
2023-01-11T13:14:56.980Z,99271.59
2023-01-11T13:17:45.106Z,99275.13
2023-01-11T13:20:11.742Z,99271.22
2023-01-11T13:22:43.684Z,99255.22
2023-01-11T13:25:24.738Z,99266.28
2023-01-11T13:27:53.825Z,99271.44
2023-01-11T13:30:24.519Z,99259.75
2023-01-11T13:32:59.208Z,99264.06
2023-01-11T13:35:40.123Z,99283.66
2023-01-11T13:38:26.818Z,99266.81
2023-01-11T13:40:59.963Z,99284.47
2023-01-11T13:43:47.859Z,99286.75
2023-01-11T13:46:29.704Z,99271.88
2023-01-11T13:49:14.169Z,99292.34
2023-01-11T13:51:58.513Z,99293.25
2023-01-11T13:54:51.816Z,99283.25
2023-01-11T13:57:42.441Z,99301.06
2023-01-11T14:00:23.749Z,99301.53
2023-01-11T14:03:12.371Z,99304.28
2023-01-11T14:05:58.304Z,99311.28
2023-01-11T14:08:41.041Z,99299.81
2023-01-11T14:11:19.333Z,99321.47
2023-01-11T14:14:14.236Z,99318.03
2023-01-11T14:16:52.821Z,99311.09
2023-01-11T14:19:31.069Z,99327.31
2023-01-11T14:22:02.746Z,99319.09
2023-01-11T14:24:33.147Z,99328.56
2023-01-11T14:27:16.904Z,99319.56
2023-01-11T14:29:43.692Z,99328.94
2023-01-11T14:32:25.144Z,99323.69
2023-01-11T14:35:13.547Z,99333.03
2023-01-11T14:38:20.343Z,99328.81
2023-01-11T14:40:59.241Z,99327.94
2023-01-11T14:43:31.901Z,99337.25
2023-01-11T14:46:22.101Z,99336.78
2023-01-11T14:49:05.048Z,99334.72
2023-01-11T14:51:51.228Z,99341.72
2023-01-11T14:54:27.436Z,99340.13
2023-01-11T14:56:58.953Z,99341.63
2023-01-11T14:59:31.528Z,99341.97
2023-01-11T15:02:04.510Z,99338.41
2023-01-11T15:04:35.624Z,99337.66
2023-01-11T15:07:21.798Z,99355.72
2023-01-11T15:09:50.816Z,99347.47
2023-01-11T15:12:35.116Z,99341.97
2023-01-11T15:15:04.081Z,99352.97
2023-01-11T15:17:49.965Z,99352.53
2023-01-11T15:20:19.960Z,99337.53
2023-01-11T15:22:54.643Z,99353.22
2023-01-11T15:25:24.727Z,99372.44
2023-01-11T15:27:52.366Z,99357.91
2023-01-11T15:30:31.118Z,99342.22
2023-01-11T15:33:20.293Z,99360.31
2023-01-11T15:35:56.068Z,99370.94
2023-01-11T15:38:37.894Z,99366.25
2023-01-11T15:41:29.102Z,99358.81
2023-01-11T15:44:12.176Z,99354.13
2023-01-11T15:47:07.382Z,99350.13
2023-01-11T15:49:52.559Z,99365.00
2023-01-11T15:52:53.367Z,99368.91
2023-01-11T15:55:22.821Z,99376.00
2023-01-11T15:57:52.130Z,99369.69
2023-01-11T16:00:32.438Z,99362.97
2023-01-11T16:03:11.317Z,99378.63
2023-01-11T16:05:44.207Z,99379.81
2023-01-11T16:08:21.584Z,99387.56
2023-01-11T16:10:51.464Z,99390.31
2023-01-11T16:14:05.700Z,99389.06
2023-01-11T16:16:41.432Z,99392.19
2023-01-11T16:19:21.982Z,99390.56
2023-01-11T16:21:59.342Z,99387.50
2023-01-11T16:24:29.584Z,99377.75
2023-01-11T16:27:00.371Z,99380.06
2023-01-11T16:29:31.934Z,99373.41
2023-01-11T16:32:00.836Z,99378.88
2023-01-11T16:34:29.711Z,99377.38
2023-01-11T16:36:59.435Z,99377.38
2023-01-11T16:39:29.416Z,99369.94
2023-01-11T16:42:01.836Z,99368.81
2023-01-11T16:44:41.247Z,99379.00
2023-01-11T16:47:15.587Z,99361.72
2023-01-11T16:49:48.926Z,99357.81
2023-01-11T16:52:27.745Z,99364.13
2023-01-11T16:55:00.423Z,99358.63
2023-01-11T16:57:37.294Z,99362.97
2023-01-11T17:00:07.903Z,99369.69
2023-01-11T17:02:40.197Z,99364.22
2023-01-11T17:05:17.962Z,99376.81
2023-01-11T17:07:44.641Z,99361.91
2023-01-11T17:10:30.003Z,99359.63
2023-01-11T17:13:39.745Z,99360.41
2023-01-11T17:16:11.826Z,99364.44
2023-01-11T17:18:40.155Z,99368.44
2023-01-11T17:21:24.779Z,99354.31
2023-01-11T17:23:52.464Z,99354.31
2023-01-11T17:26:50.786Z,99349.63
2023-01-11T17:29:27.264Z,99341.03
2023-01-11T17:31:55.786Z,99336.69
2023-01-11T17:34:31.166Z,99324.91
2023-01-11T17:36:58.901Z,99317.47
2023-01-11T17:39:28.912Z,99312.72
2023-01-11T17:42:16.540Z,99293.06
2023-01-11T17:45:04.236Z,99286.75
2023-01-11T17:47:32.818Z,99295.38
2023-01-11T17:50:02.050Z,99289.06
2023-01-11T17:52:43.723Z,99286.31
2023-01-11T17:55:18.575Z,99293.41
2023-01-11T17:58:05.719Z,99292.72
2023-01-11T18:00:32.433Z,99278.25
2023-01-11T18:03:14.415Z,99276.78
2023-01-11T18:05:42.328Z,99277.22
2023-01-11T18:08:19.696Z,99261.97
2023-01-11T18:10:54.190Z,99275.00
2023-01-11T18:13:31.486Z,99280.13
2023-01-11T18:15:58.570Z,99255.84
2023-01-11T18:18:47.154Z,99256.63
2023-01-11T18:21:25.763Z,99266.13
2023-01-11T18:24:11.053Z,99251.56
2023-01-11T18:26:40.478Z,99265.31
2023-01-11T18:29:38.946Z,99249.28
2023-01-11T18:32:06.280Z,99251.25
2023-01-11T18:34:32.925Z,99227.75
2023-01-11T18:37:01.072Z,99219.50
2023-01-11T18:39:28.288Z,99216.38
2023-01-11T18:42:07.512Z,99206.19
2023-01-11T18:44:35.644Z,99188.19
2023-01-11T18:47:13.176Z,99195.28
2023-01-11T18:49:39.839Z,99191.03
2023-01-11T18:52:06.672Z,99196.59
2023-01-11T18:54:33.361Z,99185.69
2023-01-11T18:57:00.168Z,99184.97
2023-01-11T18:59:26.964Z,99181.13
2023-01-11T19:02:16.006Z,99178.06
2023-01-11T19:04:44.012Z,99183.19
2023-01-11T19:07:11.747Z,99170.22
2023-01-11T19:09:38.460Z,99164.72
2023-01-11T19:12:05.429Z,99168.72
2023-01-11T19:14:32.441Z,99165.16
2023-01-11T19:16:59.365Z,99146.72
2023-01-11T19:19:26.122Z,99146.72
2023-01-11T19:21:52.807Z,99120.00
2023-01-11T19:24:19.579Z,99107.41
2023-01-11T19:26:46.330Z,99101.91
2023-01-11T19:29:17.345Z,99100.31
2023-01-11T19:31:45.596Z,99093.22
2023-01-11T19:34:12.595Z,99085.34
2023-01-11T19:36:39.953Z,99087.28
2023-01-11T19:39:07.735Z,99080.63
2023-01-11T19:41:54.390Z,99069.63
2023-01-11T19:44:22.379Z,99054.72
2023-01-11T19:46:53.136Z,99048.41
2023-01-11T19:49:28.683Z,99039.03
2023-01-11T19:51:55.392Z,99035.91
2023-01-11T19:54:25.014Z,99028.06
2023-01-11T19:56:52.774Z,99006.88
2023-01-11T19:59:20.042Z,99002.16
2023-01-11T20:01:47.916Z,98980.97
2023-01-11T20:04:16.489Z,98980.59
2023-01-11T20:06:53.904Z,98968.88
2023-01-11T20:09:22.141Z,98959.81
2023-01-11T20:11:49.455Z,98937.88
2023-01-11T20:14:20.165Z,98919.84
2023-01-11T20:16:46.868Z,98905.00
2023-01-11T20:19:13.567Z,98886.19
2023-01-11T20:21:40.735Z,98868.50
2023-01-11T20:24:07.665Z,98855.63
2023-01-11T20:26:34.422Z,98840.69
2023-01-11T20:29:02.118Z,98810.41
2023-01-11T20:31:32.179Z,98797.53
2023-01-11T20:34:02.213Z,98799.09
2023-01-11T20:36:29.191Z,98770.03
2023-01-11T20:38:57.060Z,98763.00
2023-01-11T20:41:44.447Z,98750.84
2023-01-11T20:44:12.346Z,98726.88
2023-01-11T20:46:39.332Z,98714.72
2023-01-11T20:49:09.903Z,98700.56
2023-01-11T20:51:37.132Z,98683.69
2023-01-11T20:54:05.347Z,98673.47
2023-01-11T20:56:33.637Z,98653.03
2023-01-11T20:59:03.406Z,98654.63
2023-01-11T21:01:31.282Z,98655.81
2023-01-11T21:04:01.914Z,98664.13
2023-01-11T21:06:31.159Z,98657.88
2023-01-11T21:08:59.676Z,98632.03
2023-01-11T21:11:27.668Z,98609.25
2023-01-11T21:16:24.540Z,98549.25
2023-01-11T21:18:59.728Z,98545.41
2023-01-11T21:21:28.473Z,98543.50
2023-01-11T21:24:00.657Z,98538.09
2023-01-11T21:26:29.006Z,98531.06
2023-01-11T21:29:01.059Z,98523.22
2023-01-11T21:31:30.035Z,98528.81
2023-01-11T21:33:57.631Z,98515.91
2023-01-11T21:36:26.355Z,98502.25
2023-01-11T21:38:54.839Z,98484.19
2023-01-11T21:41:43.128Z,98496.84
2023-01-11T21:44:11.822Z,98498.44
2023-01-11T21:46:39.380Z,98482.31
2023-01-11T21:49:06.407Z,98508.75
2023-01-11T21:51:34.600Z,98497.34
2023-01-11T21:54:05.326Z,98509.59
2023-01-11T21:56:32.577Z,98499.38
2023-01-11T21:58:59.441Z,98499.38
2023-01-11T22:01:26.143Z,98496.22
2023-01-11T22:03:52.865Z,98478.09
2023-01-11T22:06:19.649Z,98495.84
2023-01-11T22:08:46.723Z,98495.88
2023-01-11T22:11:16.780Z,98501.78
2023-01-11T22:13:43.931Z,98497.06
2023-01-11T22:16:13.329Z,98488.41
2023-01-11T22:18:41.365Z,98491.97
2023-01-11T22:21:11.237Z,98499.84
2023-01-11T22:23:38.092Z,98515.25
2023-01-11T22:26:06.641Z,98505.41
2023-01-11T22:28:53.456Z,98487.69
2023-01-11T22:31:20.984Z,98509.78
2023-01-11T22:33:47.854Z,98522.41
2023-01-11T22:36:15.012Z,98512.16
2023-01-11T22:38:41.953Z,98510.59
2023-01-11T22:41:09.260Z,98507.44
2023-01-11T22:43:35.994Z,98501.13
2023-01-11T22:46:02.858Z,98532.31
2023-01-11T22:48:31.456Z,98532.72
2023-01-11T22:50:58.685Z,98529.19
2023-01-11T22:53:25.345Z,98520.50
2023-01-11T22:55:52.036Z,98547.34
2023-01-11T22:58:18.713Z,98562.75
2023-01-11T23:00:45.399Z,98559.19
2023-01-11T23:03:12.351Z,98569.47
2023-01-11T23:05:44.899Z,98555.63
2023-01-11T23:08:11.636Z,98580.53
2023-01-11T23:10:38.362Z,98565.13
2023-01-11T23:13:23.964Z,98574.63
2023-01-11T23:15:54.618Z,98571.06
2023-01-11T23:18:21.947Z,98587.22
2023-01-11T23:20:48.624Z,98589.63
2023-01-11T23:23:15.427Z,98590.38
2023-01-11T23:25:42.222Z,98615.69
2023-01-11T23:28:08.922Z,98614.91
2023-01-11T23:30:37.092Z,98605.41
2023-01-11T23:33:03.879Z,98622.78
2023-01-11T23:35:30.646Z,98621.25
2023-01-11T23:37:58.259Z,98637.06
2023-01-11T23:40:24.944Z,98646.53
2023-01-11T23:42:51.625Z,98644.97
2023-01-11T23:45:18.296Z,98666.69
2023-01-11T23:47:44.980Z,98654.03
2023-01-11T23:50:11.669Z,98668.66
2023-01-11T23:52:38.332Z,98682.50
2023-01-11T23:55:05.495Z,98690.78
2023-01-11T23:57:32.251Z,98691.19
2023-01-11T23:59:58.941Z,98693.94
